Weather observations for the past three days for
Presidio Lely International Airport
Imperial (Metric)
Date Time (cdt) Wind (mph) Vis. (mi.) Weather Sky Cond. Temperature (ºF) Relative Humidity Wind Chill (°F) Heat Index (°F) Pressure Precipitation (in)
Air Dwpt 6 hour altimeter (in) sea level (mb) 1 hr 3 hr 6 hr
Max. Min.
05 05:15 N 6 10.00 Fair CLR 83.3 62.2 49% 84 29.99 0.0
05 04:55 N 5 10.00 Fair CLR 83.5 62.1 49% 84 29.99 0.0
05 04:35 N 7 10.00 Fair CLR 83.7 61.9 48% 84 29.98 0.0
05 04:15 N 8 10.00 Fair CLR 83.7 62.1 48% 84 29.98 0.0
05 03:55 N 9 10.00 Fair CLR 84 62.1 48% 85 29.98 0.0
05 03:35 N 8 10.00 Fair CLR 84.2 61.9 47% 85 29.98 0.0
05 03:15 N 7 10.00 Fair CLR 84.4 61.9 47% 85 29.97 0.0
05 02:55 N 9 10.00 Fair CLR 84.9 61.7 46% 85 29.97 0.0
05 02:35 NE 9 10.00 Fair CLR 84.6 61.7 46% 85 29.98 0.0
05 02:15 NE 9 10.00 Fair CLR 84.6 61.7 46% 85 29.97 0.0
05 01:55 NE 9 10.00 Fair CLR 84.4 61.9 47% 85 29.98 0.0
05 01:35 NE 14 10.00 Fair CLR 84.6 61.9 47% 85 29.98 0.0
05 01:15 NE 16 G 21 10.00 Fair CLR 84.6 61.7 46% 85 29.98 0.0
05 00:55 NE 15 G 22 10.00 Fair CLR 85.1 61.7 90.7 85.1 45% 86 29.97 0.0
05 00:35 NE 12 G 16 10.00 Fair CLR 86 61.9 44% 86 29.97 0.0
05 00:15 NE 9 10.00 Fair CLR 86.7 61.3 43% 87 29.96 0.0
04 23:55 NE 9 10.00 Fair CLR 87.4 61 41% 87 29.96 0.0
04 23:35 NE 9 10.00 Fair CLR 87.8 60.8 40% 88 29.97 0.0
04 23:15 NE 14 G 21 10.00 Partly Cloudy SCT070 88 60.6 40% 88 29.97 0.0
04 22:55 NE 10 10.00 Mostly Cloudy SCT070 BKN100 88.2 59.7 38% 88 29.98 0.0
04 22:35 NE 8 10.00 Mostly Cloudy BKN100 BKN120 88 59.9 39% 88 29.98 0.0
04 22:15 E 6 10.00 Partly Cloudy SCT110 87.8 61.3 41% 88 29.97 0.0
04 21:55 Calm 10.00 Fair CLR 87.6 61.9 42% 88 29.97 0.0
04 21:35 N 3 10.00 Fair CLR 87.8 60.8 40% 88 29.96 0.0
04 21:15 N 6 10.00 Fair CLR 87.8 61 41% 88 29.94 0.0
04 20:55 N 6 10.00 Fair CLR 87.8 60.6 40% 88 29.93 0.0
04 20:35 N 5 10.00 Fair CLR 88.2 60.1 39% 88 29.92 0.0
04 20:15 N 8 10.00 Fair CLR 88.3 60.1 39% 88 29.92 0.0
04 19:55 N 8 10.00 Fair CLR 89.6 60.4 38% 89 29.91 0.0
04 19:35 N 8 10.00 Fair CLR 90.3 61.2 38% 90 29.91 0.0
04 19:15 N 12 10.00 Fair CLR 90.3 60.4 37% 90 29.91 0.0
04 18:55 N 17 G 21 10.00 Fair CLR 90.5 61.7 100.8 86 38% 91 29.91 0.0 0.04 0.06
04 18:35 N 17 G 23 10.00 Partly Cloudy SCT029 SCT035 SCT044 91 61.7 38% 91 29.91 0.0 0.04
04 18:15 N 13 G 17 7.00 Light Rain SCT029 BKN046 OVC080 87.3 64.6 47% 89 29.91 0.0 0.04
04 17:55 N 15 G 23 10.00 Rain SCT050 SCT070 BKN080 95.5 61.5 32% 96 29.91 0.0 0.01
04 17:35 NE 17 G 25 10.00 Mostly Cloudy BKN095 BKN120 97.5 59.4 28% 97 29.9 0.0
04 17:15 NW 6 10.00 Mostly Cloudy BKN095 99.9 56.3 23% 99 29.89 0.0
04 16:55 Calm 10.00 Fair CLR 98.6 56.7 25% 97 29.89 0.0
04 16:35 SW 8 10.00 Fair CLR 99.9 57.6 25% 99 29.89 0.0
04 16:15 S 7 10.00 Fair CLR 99.9 58.1 25% 99 29.9 0.0
04 15:55 S 7 10.00 Fair CLR 99.9 58.3 25% 100 29.91 0.0
04 15:35 S 7 10.00 Fair CLR 99 58.3 26% 99 29.92 0.0
04 15:15 SW 9 10.00 Fair CLR 99.1 58.6 26% 99 29.93 0.0
04 14:55 SW 7 10.00 Fair CLR 97.9 58.6 27% 97 29.94 0.0
04 14:35 SW 6 10.00 Fair CLR 96.4 58.6 28% 96 29.96 0.0
04 14:15 Calm 10.00 Fair CLR 95.2 58.3 29% 94 29.97 0.0
04 13:55 Calm 10.00 Fair CLR 95.7 58.6 29% 95 29.98 0.0
04 13:35 Calm 10.00 Fair CLR 94.3 58.6 30% 94 29.99 0.0
04 13:15 SE 5 10.00 Fair CLR 93.9 59 31% 93 30 0.0
04 12:55 Calm 10.00 Fair CLR 92.1 59.2 92.8 77.4 33% 91 30.01 0.0
04 12:35 Calm 10.00 Fair CLR 91.4 59 34% 91 30.02 0.0
04 12:15 Calm 10.00 Fair CLR 90 59.2 36% 89 30.03 0.0
04 11:55 Calm 10.00 Fair CLR 89.2 59.2 36% 89 30.03 0.0
04 11:35 Calm 10.00 Fair CLR 87.6 59.7 39% 87 30.03 0.0
04 11:15 Calm 10.00 Fair CLR 86.2 59.7 41% 86 30.04 0.0
04 10:55 Calm 10.00 Fair CLR 85.6 59.9 42% 85 30.04 0.0
04 10:35 S 3 10.00 Fair CLR 84 59.9 44% 84 30.04 0.0
04 10:15 E 6 10.00 Fair CLR 82.9 59.7 45% 83 30.04 0.0
04 09:55 E 6 10.00 Fair CLR 82.8 59.4 45% 83 30.04 0.0
04 09:35 E 6 10.00 Fair CLR 82.2 60.4 48% 83 30.04 0.0
04 09:15 Calm 10.00 Fair CLR 80.1 60.1 51% 81 30.04 0.0
04 08:55 Calm 10.00 Fair CLR 79.3 60.1 52% 80 30.03 0.0
04 08:35 SE 3 10.00 Fair CLR 79.5 59.7 51% 80 30.03 0.0
04 08:15 Calm 10.00 Fair CLR 78.4 60.3 54% 80 30.02 0.0
04 07:55 E 3 10.00 Fair CLR 77.5 59.9 55% 79 30.01 0.0
04 07:35 N 5 10.00 Fair CLR 77.9 59.4 53% 79 30 0.0
04 07:15 NW 3 10.00 Fair CLR 78.3 59.4 52% 80 30 0.0
04 06:55 W 6 10.00 Fair CLR 78.4 59.5 88.7 78.4 52% 80 29.99 0.0
04 06:35 NW 6 10.00 Fair CLR 78.8 59.9 52% 80 29.99 0.0
04 06:15 W 6 10.00 Fair CLR 79 59.9 52% 80 29.99 0.0
04 05:55 NW 10 10.00 Fair CLR 79.2 59.4 51% 80 29.99 0.0
04 05:35 W 12 G 20 10.00 Fair CLR 79.2 59.5 51% 80 29.98 0.0
04 05:15 W 14 10.00 Fair CLR 78.8 61 54% 80 29.97 0.0
04 04:55 NW 14 10.00 Partly Cloudy SCT120 78.8 61 54% 80 29.97 0.0
04 04:35 W 14 G 20 10.00 Mostly Cloudy BKN120 79.5 61.7 55% 81 29.97 0.0
04 04:15 W 16 10.00 Mostly Cloudy SCT095 BKN110 80.1 61.5 53% 81 29.97 0.0
04 03:55 W 9 10.00 Mostly Cloudy BKN100 83.1 61 47% 84 29.97 0.0
04 03:35 W 7 10.00 Partly Cloudy SCT110 82.9 61.7 49% 84 29.96 0.0
04 03:15 NW 10 10.00 Partly Cloudy SCT120 83.3 61.7 48% 84 29.96 0.0
04 02:55 W 17 10.00 Partly Cloudy SCT110 84.6 60.1 44% 85 29.96 0.0
04 02:35 NW 12 G 17 10.00 Mostly Cloudy BKN110 86.5 57.4 37% 85 29.96 0.0
04 02:15 NW 6 10.00 Mostly Cloudy BKN110 86.9 57 36% 86 29.96 0.0
04 01:55 NW 8 10.00 Fair CLR 87.3 57.2 36% 86 29.96 0.0
04 01:35 W 8 10.00 Partly Cloudy SCT110 87.8 57.9 36% 87 29.96 0.0
04 01:15 W 5 10.00 Mostly Cloudy BKN110 88.7 56.7 34% 87 29.96 0.0
04 00:55 NW 3 10.00 Mostly Cloudy BKN110 88 56.5 98.6 87.4 34% 87 29.95 0.0
04 00:35 W 8 10.00 Fair CLR 89.1 56.8 34% 88 29.95 0.0
04 00:15 N 7 10.00 Fair CLR 87.8 58.6 37% 87 29.94 0.0
03 23:55 N 6 10.00 Fair CLR 88.5 58.1 36% 87 29.94 0.0
03 23:35 N 7 10.00 Partly Cloudy SCT110 89.2 57.6 34% 88 29.93 0.0
03 23:15 Calm 10.00 Mostly Cloudy BKN110 90.5 56.8 32% 89 29.93 0.0
03 22:55 N 5 10.00 Fair CLR 91.8 56.7 31% 90 29.93 0.0
03 22:35 N 3 10.00 Fair CLR 92.7 56.3 29% 91 29.93 0.0
03 22:15 S 7 10.00 Fair CLR 91.4 57.7 32% 90 29.93 0.0
03 21:55 N 5 10.00 Fair CLR 91.4 57.7 32% 90 29.9 0.0
03 21:35 N 10 10.00 Fair CLR 93.2 56.1 29% 92 29.9 0.0
03 21:15 N 8 10.00 Fair CLR 92.7 58.1 31% 92 29.88 0.0
03 20:55 N 12 10.00 Fair CLR 93.7 58.6 31% 93 29.88 0.0
03 20:35 N 9 G 16 10.00 Fair CLR 94.5 57.9 29% 93 29.88 0.0
03 20:15 N 15 G 20 10.00 Fair CLR 95.4 57.9 29% 94 29.87 0.0
03 19:55 N 15 G 20 10.00 Fair CLR 97.3 55.6 25% 96 29.87 0.0
03 19:35 N 14 G 18 10.00 Fair CLR 98.4 56.8 25% 97 29.86 0.0
03 19:15 N 14 10.00 Fair CLR 98.2 56.5 25% 97 29.86 0.0
03 18:55 NE 15 G 22 10.00 Fair CLR 98.8 56.7 103.5 95.5 25% 98 29.86 0.0
03 18:35 N 17 G 22 10.00 Partly Cloudy SCT110 100 52.7 20% 98 29.86 0.0
03 18:15 N 21 G 28 10.00 Overcast and Breezy OVC110 101.3 53.6 20% 99 29.86 0.0
03 17:55 E 7 10.00 Mostly Cloudy BKN110 102.9 53.6 19% 101 29.86 0.0
03 17:35 SE 6 10.00 Partly Cloudy SCT110 101.8 52.2 19% 99 29.85 0.0
03 17:15 Calm 10.00 Fair CLR 101.8 52.3 19% 99 29.86 0.0
03 16:55 E 5 10.00 Fair CLR 102.6 52.7 19% 100 29.87 0.0
03 16:35 SE 6 10.00 Fair CLR 102.4 52.9 19% 100 29.87 0.0
03 16:15 W 7 10.00 Fair CLR 100.8 54 21% 99 29.88 0.0
03 15:55 SE 7 10.00 Fair CLR 102 55 21% 101 29.9 0.0
03 15:35 SW 6 10.00 Partly Cloudy SCT100 101.3 55 21% 100 29.91 0.0
03 15:15 SW 6 10.00 Mostly Cloudy BKN100 100.9 55.4 22% 100 29.91 0.0
03 14:55 SW 7 10.00 Fair CLR 100.6 55.8 22% 99 29.92 0.0
03 14:35 E 3 10.00 Fair CLR 99.5 55.8 23% 98 29.93 0.0
03 14:15 SW 7 10.00 Fair CLR 99.5 55.8 23% 98 29.94 0.0
03 13:55 SW 8 10.00 Fair CLR 97.7 56.5 25% 96 29.96 0.0
03 13:35 NW 3 10.00 Fair CLR 97.3 56.5 26% 96 29.97 0.0
03 13:15 NW 8 10.00 Fair CLR 97.3 56.5 26% 96 29.98 0.0
03 12:55 W 3 10.00 Fair CLR 96.1 56.3 96.3 81.1 26% 95 29.99 0.0
03 12:35 Calm 10.00 Fair CLR 95.9 56.7 27% 95 30 0.0
03 12:15 Calm 10.00 Fair CLR 94.6 57.4 29% 93 30.01 0.0
03 11:55 N 3 10.00 Fair CLR 93.7 57.4 30% 92 30.02 0.0
03 11:35 Calm 10.00 Fair CLR 91.4 57.7 32% 90 30.02 0.0
03 11:15 SW 5 10.00 Fair CLR 91.2 58.1 33% 90 30.03 0.0
03 10:55 S 5 10.00 Fair CLR 91.4 58.3 33% 90 30.03 0.0
03 10:35 SE 3 10.00 Fair CLR 90 58.5 35% 89 30.02 0.0
03 10:15 SE 3 10.00 Fair CLR 88.5 58.3 36% 88 30.02 0.0
03 09:55 SE 3 10.00 Fair CLR 88.3 58.3 36% 87 30.02 0.0
03 09:35 Calm 10.00 Fair CLR 86.7 59.2 39% 86 30.02 0.0
03 09:15 Calm 10.00 Fair CLR 86 58.6 40% 85 30.03 0.0
03 08:55 N 5 10.00 Fair CLR 84.2 59.2 43% 84 30.03 0.0
03 08:35 N 3 10.00 Fair CLR 83.1 58.8 44% 83 30.02 0.0
03 08:15 N 3 10.00 Fair CLR 82 58.3 44% 82 30.01 0.0
03 07:55 Calm 10.00 Fair CLR 81.7 58.3 45% 82 30 0.0
03 07:35 Calm 10.00 Fair CLR 82.2 58.1 44% 82 29.99 0.0
03 07:15 N 3 10.00 Fair CLR 81.5 58.1 45% 82 29.99 0.0
03 06:55 NE 3 10.00 Fair CLR 81.9 58.1 85.8 81.5 44% 82 29.99 0.0
03 06:35 NE 3 10.00 Fair CLR 82 58.1 44% 82 29.99 0.0
03 06:15 N 5 10.00 Fair CLR 81.9 58.3 45% 82 29.98 0.0
03 05:55 N 6 10.00 Fair CLR 82.4 58.3 44% 82 29.98 0.0
03 05:35 N 5 10.00 Fair CLR 81.9 58.1 44% 82 29.98 0.0
03 05:15 N 6 10.00 Fair CLR 82.4 57.7 43% 82 29.98 0.0
03 04:55 Calm 10.00 Fair CLR 82.8 57.7 43% 82 29.98 0.0
03 04:35 NE 3 10.00 Fair CLR 83.8 57.7 41% 83 29.98 0.0
03 04:15 Calm 10.00 Fair CLR 84.9 57.6 39% 84 29.98 0.0
03 03:55 Calm 10.00 Fair CLR 85.3 57.4 39% 84 29.98 0.0
03 03:35 Calm 10.00 Fair CLR 85.1 56.8 38% 84 29.97 0.0
03 03:15 NE 3 10.00 Fair CLR 85.5 56.3 37% 84 29.97 0.0
03 02:55 NE 5 10.00 Fair CLR 83.3 56.8 41% 83 29.97 0.0
03 02:35 N 5 10.00 Fair CLR 82.6 57.4 42% 82 29.98 0.0
03 02:15 N 7 10.00 Fair CLR 83.3 57.4 41% 83 29.98 0.0
03 01:55 N 7 10.00 Fair CLR 83.7 57.7 41% 83 29.98 0.0
03 01:35 N 7 10.00 Partly Cloudy SCT110 84.2 57.2 40% 83 29.99 0.0
03 01:15 N 5 10.00 Mostly Cloudy BKN110 84.4 56.7 39% 83 29.99 0.0
03 00:55 N 3 10.00 Fair CLR 83.7 56.5 92.3 83.5 40% 83 29.99 0.0
03 00:35 N 6 10.00 Fair CLR 83.7 57.6 41% 83 29.99 0.0
03 00:15 N 5 10.00 Fair CLR 84.4 56.8 39% 84 29.99 0.0
02 23:55 N 5 10.00 Fair CLR 84 59.5 44% 84 29.99 0.0
02 23:35 N 3 10.00 Fair CLR 83.8 61.2 46% 84 29.99 0.0
02 23:15 N 3 10.00 Fair CLR 84.7 60.1 43% 85 29.99 0.0
02 22:55 N 6 10.00 Fair CLR 84.7 59.7 43% 85 29.99 0.0
02 22:35 NW 3 10.00 Fair CLR 86.2 57.4 38% 85 29.98 0.0
02 22:15 N 7 10.00 Fair CLR 88 54.9 32% 86 29.97 0.0
02 21:55 Calm 10.00 Fair CLR 89.1 54.1 30% 87 29.96 0.0
02 21:35 Calm 10.00 Fair CLR 90.5 53.8 29% 88 29.96 0.0
02 21:15 NE 5 10.00 Fair CLR 91.4 54.1 28% 89 29.94 0.0
02 20:55 NE 8 10.00 Fair CLR 92.3 53.1 26% 90 29.94 0.0
02 20:35 N 9 10.00 Fair CLR 91.6 53.6 28% 89 29.94 0.0
02 20:15 N 10 10.00 Fair CLR 91.8 54.3 28% 90 29.93 0.0
02 19:55 N 13 10.00 Fair CLR 91.8 56.7 31% 90 29.93 0.0
02 19:35 N 9 10.00 Fair CLR 91.4 59.7 35% 91 29.93 0.0
02 19:15 NW 17 G 24 10.00 Fair CLR 89.6 61.5 39% 90 29.94 0.0
02 18:55 N 18 G 28 10.00 Partly Cloudy SCT100 SCT120 85.8 63.7 102.7 82.4 48% 87 29.94 0.0
02 18:35 NW 24 G 32 10.00 Thunderstorm Light Rain in Vicinity and Breezy SCT014 BKN100 OVC120 82.4 66.2 58% 85 29.94 0.0
02 18:15 NE 5 G 16 10.00 Thunderstorm in Vicinity SCT050 SCT060 OVC100 100.4 55.4 22% 99 29.93 0.0
02 17:55 E 8 10.00 Light Rain SCT048 SCT060 OVC100 101.1 57.6 24% 101 29.92 0.0
02 17:35 S 10 10.00 Mostly Cloudy BKN100 102.4 54.5 20% 101 29.93 0.0
02 17:15 E 8 10.00 Fair CLR 100.8 53.6 21% 99 29.93 0.0
02 16:55 S 6 10.00 Fair CLR 102 53.2 20% 100 29.93 0.0
02 16:35 Calm 10.00 Fair CLR 99.9 53.6 21% 98 29.94 0.0
02 16:15 E 9 10.00 Fair CLR 101.1 54 21% 99 29.94 0.0
02 15:55 Calm 10.00 Partly Cloudy SCT100 99.3 54 22% 97 29.96 0.0
02 15:35 SE 3 10.00 Partly Cloudy SCT100 100 54.3 22% 98 29.97 0.0
02 15:15 W 7 10.00 Fair CLR 98.8 54.7 23% 97 29.98 0.0
02 14:55 Calm 10.00 Fair CLR 99.3 54.9 23% 98 29.99 0.0
02 14:35 N 3 10.00 Fair CLR 98.6 55.2 23% 97 30 0.0
02 14:15 SE 6 10.00 Fair CLR 97.5 55.8 25% 96 30.02 0.0
02 13:55 Calm 10.00 Fair CLR 97 55.6 25% 95 30.03 0.0
02 13:35 Calm 10.00 Fair CLR 95 56.3 27% 93 30.03 0.0
02 13:15 S 6 10.00 Fair CLR 94.1 56.8 29% 93 30.05 0.0
02 12:55 SE 6 10.00 Fair CLR 93.9 57.2 94.1 79.9 29% 93 30.06 0.0
02 12:35 S 3 10.00 Fair CLR 93 57.4 30% 92 30.06 0.0
02 12:15 SW 7 10.00 Fair CLR 92.3 57.7 31% 91 30.08 0.0
02 11:55 Calm 10.00 Fair CLR 91.4 58.5 33% 90 30.08 0.0
02 11:35 Calm 10.00 Fair CLR 90.5 58.8 34% 90 30.08 0.0
02 11:15 SE 6 10.00 Fair CLR 89.1 59 36% 88 30.09 0.0
02 10:55 E 5 10.00 Fair CLR 88 59.2 38% 87 30.09 0.0
02 10:35 SE 5 10.00 Partly Cloudy SCT110 87.4 59.4 39% 87 30.09 0.0
02 10:15 SE 3 10.00 Partly Cloudy SCT110 86.2 59.7 41% 86 30.09 0.0
02 09:55 Calm 10.00 Fair CLR 84.7 59.9 43% 85 30.09 0.0
02 09:35 Calm 10.00 Fair CLR 82.9 60.3 46% 83 30.09 0.0
02 09:15 Calm 10.00 Fair CLR 81.5 60.1 48% 82 30.09 0.0
02 08:55 Calm 10.00 Fair CLR 81.1 59.9 49% 82 30.09 0.0
02 08:35 N 5 10.00 Fair CLR 80.6 59.9 49% 81 30.07 0.0
02 08:15 N 5 10.00 Fair CLR 80.1 59.5 50% 81 30.06 0.0
02 07:55 Calm 10.00 Fair CLR 80.8 59.4 48% 81 30.06 0.0
02 07:35 NE 3 10.00 Fair CLR 81.5 59.4 47% 82 30.06 0.0
02 06:35 NE 3 10.00 Fair CLR 81.5 59.2 47% 82 30.05 0.0
02 06:15 NE 5 10.00 Fair CLR 81.7 59 46% 82 30.05 0.0
02 05:50 NE 5 10.00 Fair CLR 81.1 59 47% 82 30.05 0.0
Date Time (cdt) Wind (mph) Vis. (mi.) Weather Sky Cond. Air Dwpt Max. Min. Relative Humidity Wind Chill (°F) Heat Index (°F) altimeter (in) sea level (mb) 1 hr 3 hr 6 hr
6 hour
Temperature (ºF) Pressure Precipitation (in)